Hlavní strana
METAR-TAF:

METAR-TAF

Letiště :

Summerville, Jižní Karolína, Spojené státy americké

zeměpisná šířka: 33-03-48N, zeměpisná délka: 080-16-46W, výška: 17 m

Aktuální stav počasí

Zpráva byla vytvořena před 29 minutami, v 17:35 UTC
Západní vítr 11 kt
Teplota 11°C
Vlhkost vzduchu 43%
Tlak 1019 hPa
Viditelnost: 16.1 km
Jasno

METAR: KDYB 271735Z AUTO 28011KT 10SM CLR 11/M01 A3008 RMK AO2

Čas: 13:04 (18:04 UTC)


TAF: chybějící

Stav a předpovědi počasí z více než 4 000 letišť (zprávy METAR a TAF).

Červené a žluté tečky na mapě představují dostupné meteorologické stanice.

Když kurzor umístíte na tečku, zobrazí se název stanice.

Pak kliknutím zobrazíte stav a předpověď počasí.

Chcete-li změnit mapu, kliknutím na zelené tlačítko se znaménkem +mapu přiblížíte, kliknutím na zelené tlačítko se znaménkem – mapu oddálíte a kliknutím na zelené šipky přejdete na sousední mapy.


METAR-TAF: